sensor_id;sensor_type;location;lat;lon;timestamp;P1;durP1;ratioP1;P2;durP2;ratioP2
77432;SDS011;66752;48.576;8.876;2023-12-22T00:02:22;4.95;;;1.08;;
77432;SDS011;66752;48.576;8.876;2023-12-22T00:04:50;3.50;;;1.20;;
77432;SDS011;66752;48.576;8.876;2023-12-22T00:07:16;2.47;;;0.70;;
77432;SDS011;66752;48.576;8.876;2023-12-22T00:09:42;5.85;;;1.48;;
77432;SDS011;66752;48.576;8.876;2023-12-22T00:12:08;7.03;;;1.20;;
77432;SDS011;66752;48.576;8.876;2023-12-22T00:14:34;5.07;;;1.17;;
77432;SDS011;66752;48.576;8.876;2023-12-22T00:17:02;7.63;;;1.80;;
77432;SDS011;66752;48.576;8.876;2023-12-22T00:19:28;8.13;;;1.38;;
77432;SDS011;66752;48.576;8.876;2023-12-22T00:21:54;4.82;;;1.10;;
77432;SDS011;66752;48.576;8.876;2023-12-22T00:24:20;5.60;;;1.27;;
77432;SDS011;66752;48.576;8.876;2023-12-22T00:26:46;3.10;;;0.90;;
77432;SDS011;66752;48.576;8.876;2023-12-22T00:29:12;5.85;;;1.13;;
77432;SDS011;66752;48.576;8.876;2023-12-22T00:31:38;3.85;;;1.35;;
77432;SDS011;66752;48.576;8.876;2023-12-22T00:34:03;5.20;;;1.13;;
77432;SDS011;66752;48.576;8.876;2023-12-22T00:36:29;4.65;;;1.08;;
77432;SDS011;66752;48.576;8.876;2023-12-22T00:38:55;6.60;;;1.25;;
77432;SDS011;66752;48.576;8.876;2023-12-22T00:41:21;4.07;;;0.95;;
77432;SDS011;66752;48.576;8.876;2023-12-22T00:43:47;7.07;;;1.13;;
77432;SDS011;66752;48.576;8.876;2023-12-22T00:46:13;4.28;;;1.05;;
77432;SDS011;66752;48.576;8.876;2023-12-22T00:48:39;4.05;;;1.00;;
77432;SDS011;66752;48.576;8.876;2023-12-22T00:51:06;6.55;;;1.20;;
77432;SDS011;66752;48.576;8.876;2023-12-22T00:53:32;6.55;;;1.33;;
77432;SDS011;66752;48.576;8.876;2023-12-22T00:55:59;5.28;;;1.20;;
77432;SDS011;66752;48.576;8.876;2023-12-22T00:58:27;5.68;;;1.10;;
77432;SDS011;66752;48.576;8.876;2023-12-22T01:00:53;4.47;;;1.00;;
77432;SDS011;66752;48.576;8.876;2023-12-22T01:03:19;4.57;;;1.15;;
77432;SDS011;66752;48.576;8.876;2023-12-22T01:05:45;4.72;;;1.10;;
77432;SDS011;66752;48.576;8.876;2023-12-22T01:08:11;4.18;;;0.93;;
77432;SDS011;66752;48.576;8.876;2023-12-22T01:10:37;3.42;;;1.02;;
77432;SDS011;66752;48.576;8.876;2023-12-22T01:13:03;1.92;;;0.68;;
77432;SDS011;66752;48.576;8.876;2023-12-22T01:15:29;3.25;;;0.75;;
77432;SDS011;66752;48.576;8.876;2023-12-22T01:17:55;4.18;;;0.82;;
77432;SDS011;66752;48.576;8.876;2023-12-22T01:20:21;2.05;;;0.55;;
77432;SDS011;66752;48.576;8.876;2023-12-22T01:22:47;2.28;;;0.90;;
77432;SDS011;66752;48.576;8.876;2023-12-22T01:25:13;2.75;;;0.60;;
77432;SDS011;66752;48.576;8.876;2023-12-22T01:27:39;3.40;;;0.70;;
77432;SDS011;66752;48.576;8.876;2023-12-22T01:30:05;3.03;;;0.60;;
77432;SDS011;66752;48.576;8.876;2023-12-22T01:32:31;0.95;;;0.40;;
77432;SDS011;66752;48.576;8.876;2023-12-22T01:35:00;2.22;;;0.50;;
77432;SDS011;66752;48.576;8.876;2023-12-22T01:37:29;0.95;;;0.32;;
77432;SDS011;66752;48.576;8.876;2023-12-22T01:39:55;2.28;;;0.40;;
77432;SDS011;66752;48.576;8.876;2023-12-22T01:42:21;0.10;;;0.03;;
77432;SDS011;66752;48.576;8.876;2023-12-22T01:44:47;0.22;;;0.20;;
77432;SDS011;66752;48.576;8.876;2023-12-22T01:47:13;1.00;;;0.50;;
77432;SDS011;66752;48.576;8.876;2023-12-22T01:49:40;2.25;;;0.60;;
77432;SDS011;66752;48.576;8.876;2023-12-22T01:52:06;1.55;;;0.52;;
77432;SDS011;66752;48.576;8.876;2023-12-22T01:54:32;0.82;;;0.35;;
77432;SDS011;66752;48.576;8.876;2023-12-22T01:56:59;2.42;;;0.38;;
77432;SDS011;66752;48.576;8.876;2023-12-22T01:59:25;1.35;;;0.50;;
77432;SDS011;66752;48.576;8.876;2023-12-22T02:01:51;4.78;;;0.52;;
77432;SDS011;66752;48.576;8.876;2023-12-22T02:04:17;1.33;;;0.38;;
77432;SDS011;66752;48.576;8.876;2023-12-22T02:06:43;4.03;;;0.47;;
77432;SDS011;66752;48.576;8.876;2023-12-22T02:09:09;3.28;;;0.70;;
77432;SDS011;66752;48.576;8.876;2023-12-22T02:11:37;2.75;;;1.17;;
77432;SDS011;66752;48.576;8.876;2023-12-22T02:14:03;2.72;;;0.80;;
77432;SDS011;66752;48.576;8.876;2023-12-22T02:16:31;2.92;;;0.90;;
77432;SDS011;66752;48.576;8.876;2023-12-22T02:18:58;4.35;;;0.95;;
77432;SDS011;66752;48.576;8.876;2023-12-22T02:21:25;3.60;;;0.85;;
77432;SDS011;66752;48.576;8.876;2023-12-22T02:23:51;3.42;;;0.98;;
77432;SDS011;66752;48.576;8.876;2023-12-22T02:26:22;6.40;;;1.52;;
77432;SDS011;66752;48.576;8.876;2023-12-22T02:28:50;3.05;;;1.00;;
77432;SDS011;66752;48.576;8.876;2023-12-22T02:31:17;4.35;;;1.30;;
77432;SDS011;66752;48.576;8.876;2023-12-22T02:33:47;6.80;;;1.17;;
77432;SDS011;66752;48.576;8.876;2023-12-22T02:36:14;5.95;;;1.10;;
77432;SDS011;66752;48.576;8.876;2023-12-22T02:38:41;7.35;;;1.05;;
77432;SDS011;66752;48.576;8.876;2023-12-22T02:41:08;5.55;;;1.10;;
77432;SDS011;66752;48.576;8.876;2023-12-22T02:43:34;3.58;;;0.90;;
77432;SDS011;66752;48.576;8.876;2023-12-22T02:46:00;3.30;;;0.93;;
77432;SDS011;66752;48.576;8.876;2023-12-22T02:48:26;5.85;;;1.00;;
77432;SDS011;66752;48.576;8.876;2023-12-22T02:50:52;4.88;;;1.45;;
77432;SDS011;66752;48.576;8.876;2023-12-22T02:53:18;3.13;;;0.95;;
77432;SDS011;66752;48.576;8.876;2023-12-22T02:55:44;3.42;;;0.90;;
77432;SDS011;66752;48.576;8.876;2023-12-22T02:58:10;7.78;;;1.40;;
77432;SDS011;66752;48.576;8.876;2023-12-22T03:00:36;2.47;;;0.77;;
77432;SDS011;66752;48.576;8.876;2023-12-22T03:03:02;2.03;;;0.52;;
77432;SDS011;66752;48.576;8.876;2023-12-22T03:05:28;3.30;;;0.70;;
77432;SDS011;66752;48.576;8.876;2023-12-22T03:07:54;1.75;;;0.55;;
77432;SDS011;66752;48.576;8.876;2023-12-22T03:10:20;1.90;;;0.28;;
77432;SDS011;66752;48.576;8.876;2023-12-22T03:12:46;1.65;;;0.40;;
77432;SDS011;66752;48.576;8.876;2023-12-22T03:15:12;1.45;;;0.40;;
77432;SDS011;66752;48.576;8.876;2023-12-22T03:17:37;1.17;;;0.38;;
77432;SDS011;66752;48.576;8.876;2023-12-22T03:20:03;2.33;;;0.60;;
77432;SDS011;66752;48.576;8.876;2023-12-22T03:22:30;1.63;;;0.57;;
77432;SDS011;66752;48.576;8.876;2023-12-22T03:24:55;5.35;;;0.88;;
77432;SDS011;66752;48.576;8.876;2023-12-22T03:27:21;3.30;;;1.30;;
77432;SDS011;66752;48.576;8.876;2023-12-22T03:29:47;3.55;;;0.65;;
77432;SDS011;66752;48.576;8.876;2023-12-22T03:32:13;3.45;;;0.55;;
77432;SDS011;66752;48.576;8.876;2023-12-22T03:37:06;4.68;;;0.70;;
77432;SDS011;66752;48.576;8.876;2023-12-22T03:39:32;2.83;;;0.63;;
77432;SDS011;66752;48.576;8.876;2023-12-22T03:41:58;2.85;;;0.73;;
77432;SDS011;66752;48.576;8.876;2023-12-22T03:44:24;5.50;;;1.42;;
77432;SDS011;66752;48.576;8.876;2023-12-22T03:46:50;4.65;;;0.93;;
77432;SDS011;66752;48.576;8.876;2023-12-22T03:49:16;9.35;;;1.13;;
77432;SDS011;66752;48.576;8.876;2023-12-22T03:51:44;5.53;;;0.80;;
77432;SDS011;66752;48.576;8.876;2023-12-22T03:54:10;7.63;;;0.90;;
77432;SDS011;66752;48.576;8.876;2023-12-22T03:56:36;4.63;;;1.55;;
77432;SDS011;66752;48.576;8.876;2023-12-22T03:59:02;6.03;;;0.73;;
77432;SDS011;66752;48.576;8.876;2023-12-22T04:01:28;2.63;;;0.82;;
77432;SDS011;66752;48.576;8.876;2023-12-22T04:03:54;5.10;;;0.93;;
77432;SDS011;66752;48.576;8.876;2023-12-22T04:06:20;5.30;;;1.15;;
77432;SDS011;66752;48.576;8.876;2023-12-22T04:08:46;9.93;;;1.92;;
77432;SDS011;66752;48.576;8.876;2023-12-22T04:11:12;5.05;;;0.93;;
77432;SDS011;66752;48.576;8.876;2023-12-22T04:13:38;7.00;;;1.00;;
77432;SDS011;66752;48.576;8.876;2023-12-22T04:16:04;4.85;;;1.25;;
77432;SDS011;66752;48.576;8.876;2023-12-22T04:18:30;4.85;;;1.45;;
77432;SDS011;66752;48.576;8.876;2023-12-22T04:20:57;3.38;;;0.80;;
77432;SDS011;66752;48.576;8.876;2023-12-22T04:23:23;5.60;;;1.50;;
77432;SDS011;66752;48.576;8.876;2023-12-22T04:25:49;4.10;;;0.88;;
77432;SDS011;66752;48.576;8.876;2023-12-22T04:28:15;4.22;;;1.55;;
77432;SDS011;66752;48.576;8.876;2023-12-22T04:30:41;2.80;;;0.80;;
77432;SDS011;66752;48.576;8.876;2023-12-22T04:33:07;5.15;;;1.30;;
77432;SDS011;66752;48.576;8.876;2023-12-22T04:35:33;4.97;;;1.15;;
77432;SDS011;66752;48.576;8.876;2023-12-22T04:37:59;5.68;;;1.35;;
77432;SDS011;66752;48.576;8.876;2023-12-22T04:40:25;7.97;;;1.40;;
77432;SDS011;66752;48.576;8.876;2023-12-22T04:42:52;9.07;;;1.23;;
77432;SDS011;66752;48.576;8.876;2023-12-22T04:45:18;4.07;;;1.30;;
77432;SDS011;66752;48.576;8.876;2023-12-22T04:47:44;4.90;;;1.25;;
77432;SDS011;66752;48.576;8.876;2023-12-22T04:50:10;6.55;;;1.48;;
77432;SDS011;66752;48.576;8.876;2023-12-22T04:52:36;8.00;;;1.35;;
77432;SDS011;66752;48.576;8.876;2023-12-22T04:55:02;8.02;;;1.67;;
77432;SDS011;66752;48.576;8.876;2023-12-22T04:57:28;4.43;;;1.05;;
77432;SDS011;66752;48.576;8.876;2023-12-22T04:59:54;3.83;;;1.00;;
77432;SDS011;66752;48.576;8.876;2023-12-22T05:02:20;7.78;;;1.52;;
77432;SDS011;66752;48.576;8.876;2023-12-22T05:04:46;6.05;;;2.10;;
77432;SDS011;66752;48.576;8.876;2023-12-22T05:07:12;7.38;;;1.70;;
77432;SDS011;66752;48.576;8.876;2023-12-22T05:09:38;7.88;;;1.67;;
77432;SDS011;66752;48.576;8.876;2023-12-22T05:12:06;4.50;;;1.60;;
77432;SDS011;66752;48.576;8.876;2023-12-22T05:14:32;6.10;;;1.90;;
77432;SDS011;66752;48.576;8.876;2023-12-22T05:16:58;7.13;;;1.60;;
77432;SDS011;66752;48.576;8.876;2023-12-22T05:19:24;8.95;;;1.55;;
77432;SDS011;66752;48.576;8.876;2023-12-22T05:21:50;6.57;;;1.98;;
77432;SDS011;66752;48.576;8.876;2023-12-22T05:24:17;4.65;;;1.48;;
77432;SDS011;66752;48.576;8.876;2023-12-22T05:26:44;6.25;;;1.65;;
77432;SDS011;66752;48.576;8.876;2023-12-22T05:29:09;8.80;;;1.42;;
77432;SDS011;66752;48.576;8.876;2023-12-22T05:31:38;9.68;;;1.60;;
77432;SDS011;66752;48.576;8.876;2023-12-22T05:36:31;4.78;;;1.50;;
77432;SDS011;66752;48.576;8.876;2023-12-22T05:41:23;6.65;;;1.80;;
77432;SDS011;66752;48.576;8.876;2023-12-22T05:43:49;15.77;;;2.17;;
77432;SDS011;66752;48.576;8.876;2023-12-22T05:46:15;5.95;;;1.65;;
77432;SDS011;66752;48.576;8.876;2023-12-22T05:48:41;5.55;;;1.15;;
77432;SDS011;66752;48.576;8.876;2023-12-22T05:51:07;8.27;;;1.40;;
77432;SDS011;66752;48.576;8.876;2023-12-22T05:53:38;6.95;;;1.58;;
77432;SDS011;66752;48.576;8.876;2023-12-22T05:56:04;9.77;;;1.33;;
77432;SDS011;66752;48.576;8.876;2023-12-22T05:58:30;8.32;;;1.42;;
77432;SDS011;66752;48.576;8.876;2023-12-22T06:00:56;5.35;;;1.30;;
77432;SDS011;66752;48.576;8.876;2023-12-22T06:03:22;6.15;;;1.00;;
77432;SDS011;66752;48.576;8.876;2023-12-22T06:05:48;4.35;;;1.00;;
77432;SDS011;66752;48.576;8.876;2023-12-22T06:08:14;6.45;;;2.00;;
77432;SDS011;66752;48.576;8.876;2023-12-22T06:10:39;4.80;;;1.00;;
77432;SDS011;66752;48.576;8.876;2023-12-22T06:13:05;5.43;;;1.48;;
77432;SDS011;66752;48.576;8.876;2023-12-22T06:15:31;5.20;;;1.13;;
77432;SDS011;66752;48.576;8.876;2023-12-22T06:17:57;7.55;;;1.10;;
77432;SDS011;66752;48.576;8.876;2023-12-22T06:20:23;9.95;;;2.20;;
77432;SDS011;66752;48.576;8.876;2023-12-22T06:22:51;8.68;;;2.00;;
77432;SDS011;66752;48.576;8.876;2023-12-22T06:25:17;7.43;;;1.45;;
77432;SDS011;66752;48.576;8.876;2023-12-22T06:27:45;6.72;;;1.17;;
77432;SDS011;66752;48.576;8.876;2023-12-22T06:30:11;5.03;;;1.20;;
77432;SDS011;66752;48.576;8.876;2023-12-22T06:32:37;7.72;;;1.60;;
77432;SDS011;66752;48.576;8.876;2023-12-22T06:35:06;6.75;;;1.45;;
77432;SDS011;66752;48.576;8.876;2023-12-22T06:37:32;7.20;;;1.20;;
77432;SDS011;66752;48.576;8.876;2023-12-22T06:39:58;8.60;;;1.17;;
77432;SDS011;66752;48.576;8.876;2023-12-22T06:42:24;5.88;;;1.50;;
77432;SDS011;66752;48.576;8.876;2023-12-22T06:44:50;9.63;;;1.75;;
77432;SDS011;66752;48.576;8.876;2023-12-22T06:47:16;5.63;;;1.13;;
77432;SDS011;66752;48.576;8.876;2023-12-22T06:49:41;6.35;;;1.52;;
77432;SDS011;66752;48.576;8.876;2023-12-22T06:52:09;7.22;;;1.25;;
77432;SDS011;66752;48.576;8.876;2023-12-22T06:54:35;6.80;;;1.00;;
77432;SDS011;66752;48.576;8.876;2023-12-22T06:57:02;12.80;;;1.65;;
77432;SDS011;66752;48.576;8.876;2023-12-22T06:59:28;10.25;;;1.60;;
77432;SDS011;66752;48.576;8.876;2023-12-22T07:01:53;5.32;;;1.20;;
77432;SDS011;66752;48.576;8.876;2023-12-22T07:04:20;9.50;;;1.45;;
77432;SDS011;66752;48.576;8.876;2023-12-22T07:06:46;8.55;;;1.30;;
77432;SDS011;66752;48.576;8.876;2023-12-22T07:11:49;6.75;;;1.48;;
77432;SDS011;66752;48.576;8.876;2023-12-22T07:14:15;4.95;;;1.23;;
77432;SDS011;66752;48.576;8.876;2023-12-22T07:16:41;4.78;;;1.38;;
77432;SDS011;66752;48.576;8.876;2023-12-22T07:19:07;6.93;;;1.55;;
77432;SDS011;66752;48.576;8.876;2023-12-22T07:21:33;8.68;;;1.48;;
77432;SDS011;66752;48.576;8.876;2023-12-22T07:23:59;8.70;;;1.40;;
77432;SDS011;66752;48.576;8.876;2023-12-22T07:26:25;7.60;;;1.83;;
77432;SDS011;66752;48.576;8.876;2023-12-22T07:28:52;9.70;;;1.52;;
77432;SDS011;66752;48.576;8.876;2023-12-22T07:31:18;9.20;;;1.80;;
77432;SDS011;66752;48.576;8.876;2023-12-22T07:33:44;4.65;;;1.27;;
77432;SDS011;66752;48.576;8.876;2023-12-22T07:36:10;5.35;;;1.30;;
77432;SDS011;66752;48.576;8.876;2023-12-22T07:38:36;7.65;;;1.60;;
77432;SDS011;66752;48.576;8.876;2023-12-22T07:41:02;8.02;;;1.50;;
77432;SDS011;66752;48.576;8.876;2023-12-22T07:43:28;10.45;;;1.40;;
77432;SDS011;66752;48.576;8.876;2023-12-22T07:45:54;5.70;;;1.13;;
77432;SDS011;66752;48.576;8.876;2023-12-22T07:48:20;11.95;;;1.80;;
77432;SDS011;66752;48.576;8.876;2023-12-22T07:50:46;6.43;;;1.23;;
77432;SDS011;66752;48.576;8.876;2023-12-22T07:53:12;6.85;;;2.22;;
77432;SDS011;66752;48.576;8.876;2023-12-22T07:55:38;7.50;;;1.65;;
77432;SDS011;66752;48.576;8.876;2023-12-22T07:58:05;10.73;;;2.00;;
77432;SDS011;66752;48.576;8.876;2023-12-22T08:00:31;8.98;;;1.30;;
77432;SDS011;66752;48.576;8.876;2023-12-22T08:02:57;13.05;;;2.33;;
77432;SDS011;66752;48.576;8.876;2023-12-22T08:05:23;6.25;;;1.40;;
77432;SDS011;66752;48.576;8.876;2023-12-22T08:07:49;5.20;;;1.38;;
77432;SDS011;66752;48.576;8.876;2023-12-22T08:10:15;13.05;;;1.90;;
77432;SDS011;66752;48.576;8.876;2023-12-22T08:12:41;8.13;;;1.63;;
77432;SDS011;66752;48.576;8.876;2023-12-22T08:15:07;6.07;;;1.50;;
77432;SDS011;66752;48.576;8.876;2023-12-22T08:17:35;9.77;;;1.80;;
77432;SDS011;66752;48.576;8.876;2023-12-22T08:20:03;6.70;;;1.60;;
77432;SDS011;66752;48.576;8.876;2023-12-22T08:22:29;7.63;;;1.38;;
77432;SDS011;66752;48.576;8.876;2023-12-22T08:24:55;9.85;;;1.35;;
77432;SDS011;66752;48.576;8.876;2023-12-22T08:27:21;10.40;;;1.50;;
77432;SDS011;66752;48.576;8.876;2023-12-22T08:29:47;9.45;;;2.00;;
77432;SDS011;66752;48.576;8.876;2023-12-22T08:32:13;11.15;;;2.00;;
77432;SDS011;66752;48.576;8.876;2023-12-22T08:34:39;11.15;;;1.92;;
77432;SDS011;66752;48.576;8.876;2023-12-22T08:37:05;6.63;;;1.48;;
77432;SDS011;66752;48.576;8.876;2023-12-22T08:39:31;7.07;;;1.85;;
77432;SDS011;66752;48.576;8.876;2023-12-22T08:41:57;13.60;;;2.35;;
77432;SDS011;66752;48.576;8.876;2023-12-22T08:44:23;6.38;;;1.33;;
77432;SDS011;66752;48.576;8.876;2023-12-22T08:46:49;6.32;;;1.70;;
77432;SDS011;66752;48.576;8.876;2023-12-22T08:49:15;6.72;;;1.67;;
77432;SDS011;66752;48.576;8.876;2023-12-22T08:51:41;7.68;;;1.52;;
77432;SDS011;66752;48.576;8.876;2023-12-22T08:54:06;6.85;;;1.15;;
77432;SDS011;66752;48.576;8.876;2023-12-22T08:56:32;6.22;;;1.60;;
77432;SDS011;66752;48.576;8.876;2023-12-22T08:59:00;7.45;;;1.48;;
77432;SDS011;66752;48.576;8.876;2023-12-22T09:01:26;10.77;;;2.15;;
77432;SDS011;66752;48.576;8.876;2023-12-22T09:03:52;8.52;;;1.90;;
77432;SDS011;66752;48.576;8.876;2023-12-22T09:06:18;8.75;;;2.25;;
77432;SDS011;66752;48.576;8.876;2023-12-22T09:08:45;5.47;;;2.00;;
77432;SDS011;66752;48.576;8.876;2023-12-22T09:11:11;4.05;;;1.45;;
77432;SDS011;66752;48.576;8.876;2023-12-22T09:13:37;7.43;;;1.50;;
77432;SDS011;66752;48.576;8.876;2023-12-22T09:16:04;8.20;;;1.35;;
77432;SDS011;66752;48.576;8.876;2023-12-22T09:18:30;5.35;;;1.50;;
77432;SDS011;66752;48.576;8.876;2023-12-22T09:20:56;6.55;;;1.55;;
77432;SDS011;66752;48.576;8.876;2023-12-22T09:23:22;11.38;;;1.80;;
77432;SDS011;66752;48.576;8.876;2023-12-22T09:25:48;10.02;;;1.73;;
77432;SDS011;66752;48.576;8.876;2023-12-22T09:28:14;8.32;;;1.65;;
77432;SDS011;66752;48.576;8.876;2023-12-22T09:30:40;8.32;;;1.52;;
77432;SDS011;66752;48.576;8.876;2023-12-22T09:33:07;5.63;;;1.17;;
77432;SDS011;66752;48.576;8.876;2023-12-22T09:35:33;7.60;;;1.30;;
77432;SDS011;66752;48.576;8.876;2023-12-22T09:37:59;6.75;;;1.38;;
77432;SDS011;66752;48.576;8.876;2023-12-22T09:40:25;6.75;;;1.50;;
77432;SDS011;66752;48.576;8.876;2023-12-22T09:42:52;8.35;;;1.38;;
77432;SDS011;66752;48.576;8.876;2023-12-22T09:45:20;13.80;;;1.88;;
77432;SDS011;66752;48.576;8.876;2023-12-22T09:50:12;7.88;;;1.90;;
77432;SDS011;66752;48.576;8.876;2023-12-22T09:52:39;10.98;;;2.25;;
77432;SDS011;66752;48.576;8.876;2023-12-22T09:57:32;7.63;;;1.83;;
77432;SDS011;66752;48.576;8.876;2023-12-22T09:59:59;8.50;;;1.90;;
77432;SDS011;66752;48.576;8.876;2023-12-22T10:02:26;10.70;;;1.80;;
77432;SDS011;66752;48.576;8.876;2023-12-22T10:07:19;6.65;;;1.40;;
77432;SDS011;66752;48.576;8.876;2023-12-22T10:12:12;7.97;;;2.22;;
77432;SDS011;66752;48.576;8.876;2023-12-22T10:14:39;15.30;;;2.35;;
77432;SDS011;66752;48.576;8.876;2023-12-22T10:17:06;7.28;;;2.10;;
77432;SDS011;66752;48.576;8.876;2023-12-22T10:19:32;8.60;;;1.70;;
77432;SDS011;66752;48.576;8.876;2023-12-22T10:21:58;9.43;;;1.80;;
77432;SDS011;66752;48.576;8.876;2023-12-22T10:27:07;7.40;;;1.33;;
77432;SDS011;66752;48.576;8.876;2023-12-22T10:29:33;7.88;;;1.67;;
77432;SDS011;66752;48.576;8.876;2023-12-22T10:32:00;4.97;;;1.55;;
77432;SDS011;66752;48.576;8.876;2023-12-22T10:34:26;9.48;;;1.90;;
77432;SDS011;66752;48.576;8.876;2023-12-22T10:36:52;6.18;;;1.63;;
77432;SDS011;66752;48.576;8.876;2023-12-22T10:39:18;12.77;;;2.13;;
77432;SDS011;66752;48.576;8.876;2023-12-22T10:41:46;7.25;;;1.65;;
77432;SDS011;66752;48.576;8.876;2023-12-22T10:44:12;7.35;;;1.45;;
77432;SDS011;66752;48.576;8.876;2023-12-22T10:46:38;5.32;;;1.48;;
77432;SDS011;66752;48.576;8.876;2023-12-22T10:49:04;5.22;;;1.63;;
77432;SDS011;66752;48.576;8.876;2023-12-22T10:51:30;6.40;;;1.25;;
77432;SDS011;66752;48.576;8.876;2023-12-22T10:53:57;3.47;;;1.00;;
77432;SDS011;66752;48.576;8.876;2023-12-22T10:56:24;6.35;;;1.35;;
77432;SDS011;66752;48.576;8.876;2023-12-22T10:58:50;5.88;;;1.30;;
77432;SDS011;66752;48.576;8.876;2023-12-22T11:03:44;4.28;;;1.45;;
77432;SDS011;66752;48.576;8.876;2023-12-22T11:06:10;6.93;;;1.50;;
77432;SDS011;66752;48.576;8.876;2023-12-22T11:08:37;4.53;;;0.98;;
77432;SDS011;66752;48.576;8.876;2023-12-22T11:11:05;4.97;;;1.70;;
77432;SDS011;66752;48.576;8.876;2023-12-22T11:13:34;6.10;;;1.40;;
77432;SDS011;66752;48.576;8.876;2023-12-22T11:16:00;6.88;;;1.48;;
77432;SDS011;66752;48.576;8.876;2023-12-22T11:18:26;7.00;;;1.60;;
77432;SDS011;66752;48.576;8.876;2023-12-22T11:20:53;8.35;;;1.50;;
77432;SDS011;66752;48.576;8.876;2023-12-22T11:23:20;5.25;;;1.17;;
77432;SDS011;66752;48.576;8.876;2023-12-22T11:25:46;5.95;;;1.25;;
77432;SDS011;66752;48.576;8.876;2023-12-22T11:28:15;3.50;;;1.00;;
77432;SDS011;66752;48.576;8.876;2023-12-22T11:30:42;6.80;;;2.60;;
77432;SDS011;66752;48.576;8.876;2023-12-22T11:33:09;6.30;;;1.33;;
77432;SDS011;66752;48.576;8.876;2023-12-22T11:35:35;4.07;;;1.17;;
77432;SDS011;66752;48.576;8.876;2023-12-22T11:38:02;5.25;;;1.13;;
77432;SDS011;66752;48.576;8.876;2023-12-22T11:40:29;3.22;;;1.10;;
77432;SDS011;66752;48.576;8.876;2023-12-22T11:42:55;6.15;;;1.10;;
77432;SDS011;66752;48.576;8.876;2023-12-22T11:45:22;5.07;;;1.77;;
77432;SDS011;66752;48.576;8.876;2023-12-22T11:47:49;4.70;;;1.00;;
77432;SDS011;66752;48.576;8.876;2023-12-22T11:50:31;3.05;;;1.02;;
77432;SDS011;66752;48.576;8.876;2023-12-22T11:52:57;4.93;;;0.98;;
77432;SDS011;66752;48.576;8.876;2023-12-22T11:58:33;4.13;;;0.70;;
77432;SDS011;66752;48.576;8.876;2023-12-22T12:01:01;5.22;;;0.85;;
77432;SDS011;66752;48.576;8.876;2023-12-22T12:03:30;6.57;;;0.90;;
77432;SDS011;66752;48.576;8.876;2023-12-22T12:08:58;4.47;;;0.70;;
77432;SDS011;66752;48.576;8.876;2023-12-22T12:14:11;3.35;;;1.00;;
77432;SDS011;66752;48.576;8.876;2023-12-22T12:16:38;2.45;;;0.63;;
77432;SDS011;66752;48.576;8.876;2023-12-22T12:19:07;3.63;;;1.00;;
77432;SDS011;66752;48.576;8.876;2023-12-22T12:21:33;2.45;;;1.00;;
77432;SDS011;66752;48.576;8.876;2023-12-22T12:23:59;3.65;;;1.10;;
77432;SDS011;66752;48.576;8.876;2023-12-22T12:26:25;2.65;;;0.63;;
77432;SDS011;66752;48.576;8.876;2023-12-22T12:28:51;3.25;;;0.70;;
77432;SDS011;66752;48.576;8.876;2023-12-22T12:31:18;2.10;;;0.95;;
77432;SDS011;66752;48.576;8.876;2023-12-22T12:33:44;3.85;;;1.30;;
77432;SDS011;66752;48.576;8.876;2023-12-22T12:36:11;15.93;;;3.80;;
77432;SDS011;66752;48.576;8.876;2023-12-22T12:41:09;23.92;;;7.00;;
77432;SDS011;66752;48.576;8.876;2023-12-22T12:43:42;20.40;;;5.32;;
77432;SDS011;66752;48.576;8.876;2023-12-22T12:46:09;6.30;;;2.35;;
77432;SDS011;66752;48.576;8.876;2023-12-22T12:48:35;3.45;;;1.20;;
77432;SDS011;66752;48.576;8.876;2023-12-22T12:51:02;3.28;;;1.13;;
77432;SDS011;66752;48.576;8.876;2023-12-22T12:53:29;3.47;;;0.68;;
77432;SDS011;66752;48.576;8.876;2023-12-22T12:55:56;5.65;;;2.22;;
77432;SDS011;66752;48.576;8.876;2023-12-22T12:58:26;2.75;;;0.80;;
77432;SDS011;66752;48.576;8.876;2023-12-22T13:00:53;3.65;;;0.70;;
77432;SDS011;66752;48.576;8.876;2023-12-22T13:03:22;1.85;;;0.70;;
77432;SDS011;66752;48.576;8.876;2023-12-22T13:05:48;2.20;;;0.65;;
77432;SDS011;66752;48.576;8.876;2023-12-22T13:08:14;2.00;;;0.98;;
77432;SDS011;66752;48.576;8.876;2023-12-22T13:10:40;2.17;;;0.50;;
77432;SDS011;66752;48.576;8.876;2023-12-22T13:13:06;2.58;;;0.82;;
77432;SDS011;66752;48.576;8.876;2023-12-22T13:15:32;2.00;;;0.40;;
77432;SDS011;66752;48.576;8.876;2023-12-22T13:17:58;1.27;;;0.55;;
77432;SDS011;66752;48.576;8.876;2023-12-22T13:20:24;1.65;;;0.50;;
77432;SDS011;66752;48.576;8.876;2023-12-22T13:25:17;1.95;;;0.63;;
77432;SDS011;66752;48.576;8.876;2023-12-22T13:27:47;2.88;;;0.93;;
77432;SDS011;66752;48.576;8.876;2023-12-22T13:30:32;1.77;;;0.65;;
77432;SDS011;66752;48.576;8.876;2023-12-22T13:32:58;1.80;;;0.70;;
77432;SDS011;66752;48.576;8.876;2023-12-22T13:35:24;2.05;;;0.60;;
77432;SDS011;66752;48.576;8.876;2023-12-22T13:37:51;2.03;;;0.77;;
77432;SDS011;66752;48.576;8.876;2023-12-22T13:40:17;1.95;;;0.70;;
77432;SDS011;66752;48.576;8.876;2023-12-22T13:42:43;4.40;;;1.67;;
77432;SDS011;66752;48.576;8.876;2023-12-22T13:45:12;3.05;;;1.08;;
77432;SDS011;66752;48.576;8.876;2023-12-22T13:47:41;1.23;;;0.32;;
77432;SDS011;66752;48.576;8.876;2023-12-22T13:50:13;0.82;;;0.25;;
77432;SDS011;66752;48.576;8.876;2023-12-22T13:52:40;5.47;;;3.42;;
77432;SDS011;66752;48.576;8.876;2023-12-22T13:55:15;1.45;;;0.50;;
77432;SDS011;66752;48.576;8.876;2023-12-22T13:57:41;3.45;;;0.80;;
77432;SDS011;66752;48.576;8.876;2023-12-22T14:02:42;1.00;;;0.40;;
77432;SDS011;66752;48.576;8.876;2023-12-22T14:05:08;1.00;;;0.40;;
77432;SDS011;66752;48.576;8.876;2023-12-22T14:07:34;1.30;;;0.50;;
77432;SDS011;66752;48.576;8.876;2023-12-22T14:10:06;1.73;;;0.47;;
77432;SDS011;66752;48.576;8.876;2023-12-22T14:12:32;0.43;;;0.20;;
77432;SDS011;66752;48.576;8.876;2023-12-22T14:14:58;0.25;;;0.13;;
77432;SDS011;66752;48.576;8.876;2023-12-22T14:17:24;1.02;;;0.43;;
77432;SDS011;66752;48.576;8.876;2023-12-22T14:19:50;1.23;;;0.30;;
77432;SDS011;66752;48.576;8.876;2023-12-22T14:22:16;1.38;;;0.17;;
77432;SDS011;66752;48.576;8.876;2023-12-22T14:24:42;0.75;;;0.40;;
77432;SDS011;66752;48.576;8.876;2023-12-22T14:27:08;1.90;;;0.60;;
77432;SDS011;66752;48.576;8.876;2023-12-22T14:29:35;1.48;;;0.47;;
77432;SDS011;66752;48.576;8.876;2023-12-22T14:32:05;1.52;;;0.50;;
77432;SDS011;66752;48.576;8.876;2023-12-22T14:34:33;0.43;;;0.20;;
77432;SDS011;66752;48.576;8.876;2023-12-22T14:36:59;2.58;;;0.50;;
77432;SDS011;66752;48.576;8.876;2023-12-22T14:39:25;2.00;;;0.52;;
77432;SDS011;66752;48.576;8.876;2023-12-22T14:41:52;0.90;;;0.30;;
77432;SDS011;66752;48.576;8.876;2023-12-22T14:44:18;10.52;;;4.35;;
77432;SDS011;66752;48.576;8.876;2023-12-22T14:46:44;5.95;;;2.28;;
77432;SDS011;66752;48.576;8.876;2023-12-22T14:49:10;4.03;;;0.77;;
77432;SDS011;66752;48.576;8.876;2023-12-22T14:51:37;1.70;;;0.50;;
77432;SDS011;66752;48.576;8.876;2023-12-22T14:54:06;0.70;;;0.30;;
77432;SDS011;66752;48.576;8.876;2023-12-22T14:56:39;1.65;;;0.40;;
77432;SDS011;66752;48.576;8.876;2023-12-22T14:59:08;2.53;;;0.63;;
77432;SDS011;66752;48.576;8.876;2023-12-22T15:01:35;0.68;;;0.30;;
77432;SDS011;66752;48.576;8.876;2023-12-22T15:04:01;0.90;;;0.30;;
77432;SDS011;66752;48.576;8.876;2023-12-22T15:06:28;0.65;;;0.30;;
77432;SDS011;66752;48.576;8.876;2023-12-22T15:08:54;1.80;;;0.80;;
77432;SDS011;66752;48.576;8.876;2023-12-22T15:11:20;4.20;;;0.95;;
77432;SDS011;66752;48.576;8.876;2023-12-22T15:13:46;9.32;;;3.88;;
77432;SDS011;66752;48.576;8.876;2023-12-22T15:16:12;3.95;;;1.35;;
77432;SDS011;66752;48.576;8.876;2023-12-22T15:18:38;2.25;;;0.70;;
77432;SDS011;66752;48.576;8.876;2023-12-22T15:21:04;1.38;;;0.50;;
77432;SDS011;66752;48.576;8.876;2023-12-22T15:23:30;1.38;;;0.40;;
77432;SDS011;66752;48.576;8.876;2023-12-22T15:25:56;0.50;;;0.45;;